AAL5304 KLIT-KCLT
Flight info
| Callsign | AAL5304 |
|---|---|
| Flight time | N/A |
| Altitude | 35000 |
| Route | MICKE BNA TAZZA FILPZ4 |
| Aircraft | A319/M-SDE3FGHIRWY/LB1 |
Departure
| Time | 2026-04-29 17:11 |
|---|---|
| Airport | Bill & Hillary Clinton National Airport/Adams Field (KLIT) |
Arrival
| Time | N/A |
|---|---|
| Airport | Charlotte Douglas International Airport (KCLT) |
| Time | Latitude | Longitude | Altitude | Speed | Heading |
|---|---|---|---|---|---|
| 2026-04-29 16:08 | 34.73003 | -92.21937 | 271 ft | 0 kts | 289° |
| 2026-04-29 17:00 | 34.73002 | -92.21937 | 270 ft | 0 kts | 289° |
| 2026-04-29 17:01 | 34.73002 | -92.21935 | 270 ft | 1 kts | 290° |
| 2026-04-29 17:01 | 34.72997 | -92.21918 | 270 ft | 2 kts | 289° |
| 2026-04-29 17:02 | 34.72992 | -92.21901 | 270 ft | 2 kts | 289° |
| 2026-04-29 17:02 | 34.72987 | -92.21884 | 270 ft | 2 kts | 311° |
| 2026-04-29 17:02 | 34.72974 | -92.21875 | 270 ft | 2 kts | 353° |
| 2026-04-29 17:02 | 34.72961 | -92.21877 | 270 ft | 0 kts | 30° |
| 2026-04-29 17:03 | 34.72956 | -92.21882 | 270 ft | 1 kts | 38° |
| 2026-04-29 17:03 | 34.72954 | -92.21884 | 270 ft | 0 kts | 36° |
| 2026-04-29 17:03 | 34.72954 | -92.21883 | 270 ft | 0 kts | 36° |
| 2026-04-29 17:06 | 34.72956 | -92.21882 | 270 ft | 1 kts | 36° |
| 2026-04-29 17:06 | 34.72980 | -92.21860 | 270 ft | 6 kts | 36° |
| 2026-04-29 17:06 | 34.73022 | -92.21808 | 270 ft | 9 kts | 85° |
| 2026-04-29 17:07 | 34.72993 | -92.21722 | 270 ft | 12 kts | 115° |
| 2026-04-29 17:07 | 34.72968 | -92.21654 | 270 ft | 14 kts | 114° |
| 2026-04-29 17:07 | 34.72908 | -92.21495 | 270 ft | 16 kts | 115° |
| 2026-04-29 17:07 | 34.72863 | -92.21374 | 270 ft | 16 kts | 114° |
| 2026-04-29 17:08 | 34.72813 | -92.21298 | 270 ft | 10 kts | 170° |
| 2026-04-29 17:08 | 34.72751 | -92.21342 | 270 ft | 12 kts | 226° |
| 2026-04-29 17:08 | 34.72688 | -92.21422 | 270 ft | 14 kts | 226° |
| 2026-04-29 17:08 | 34.72615 | -92.21516 | 270 ft | 15 kts | 227° |
| 2026-04-29 17:09 | 34.72537 | -92.21616 | 270 ft | 16 kts | 226° |
| 2026-04-29 17:09 | 34.72453 | -92.21717 | 270 ft | 17 kts | 220° |
| 2026-04-29 17:09 | 34.72377 | -92.21795 | 270 ft | 14 kts | 220° |
| 2026-04-29 17:09 | 34.72301 | -92.21872 | 270 ft | 14 kts | 220° |
| 2026-04-29 17:10 | 34.72237 | -92.21934 | 270 ft | 9 kts | 195° |
| 2026-04-29 17:10 | 34.72189 | -92.21911 | 270 ft | 8 kts | 145° |
| 2026-04-29 17:10 | 34.72148 | -92.21873 | 270 ft | 4 kts | 122° |
| 2026-04-29 17:10 | 34.72160 | -92.21843 | 270 ft | 0 kts | 43° |
| 2026-04-29 17:11 | 34.72169 | -92.21831 | 270 ft | 9 kts | 45° |
| 2026-04-29 17:11 | 34.72404 | -92.21532 | 271 ft | 90 kts | 46° |
| 2026-04-29 17:11 | 34.73003 | -92.20764 | 310 ft | 154 kts | 46° |
| 2026-04-29 17:11 | 34.73761 | -92.19781 | 940 ft | 165 kts | 46° |
| 2026-04-29 17:12 | 34.74526 | -92.18793 | 1931 ft | 163 kts | 45° |
| 2026-04-29 17:12 | 34.75301 | -92.17788 | 2656 ft | 169 kts | 45° |
| 2026-04-29 17:12 | 34.76137 | -92.16705 | 3139 ft | 186 kts | 44° |
| 2026-04-29 17:12 | 34.76734 | -92.15934 | 3467 ft | 197 kts | 44° |
| 2026-04-29 17:13 | 34.77382 | -92.15099 | 3806 ft | 210 kts | 44° |